Time;durP1;ratioP1;P1;durP2;ratioP2;P2;SDS_P1;SDS_P2;PMS_P1;PMS_P2;Temp;Humidity;BMP_temperature;BMP_pressure;BME280_temperature;BME280_humidity;BME280_pressure;Samples;Min_cycle;Max_cycle;Signal;HPM_P1;HPM_P2
2023/04/03 00:02:05;;;;;;;6.07;2.73;;;;;;;;;;5011824;28;20433;-56
2023/04/03 00:04:31;;;;;;;4.87;2.10;;;;;;;;;;5011799;28;20440;-56
2023/04/03 00:06:57;;;;;;;3.30;2.03;;;;;;;;;;5011995;28;20441;-56
2023/04/03 00:09:23;;;;;;;3.50;2.20;;;;;;;;;;5011738;28;20519;-58
2023/04/03 00:11:50;;;;;;;3.17;1.93;;;;;;;;;;5011508;28;20687;-56
2023/04/03 00:14:16;;;;;;;3.57;1.73;;;;;;;;;;5011518;28;20209;-57
2023/04/03 00:16:42;;;;;;;3.23;2.07;;;;;;;;;;5011562;28;20480;-55
2023/04/03 00:19:11;;;;;;;3.47;2.10;;;;;;;;;;5010351;28;20233;-56
2023/04/03 00:21:37;;;;;;;2.30;1.73;;;;;;;;;;5016292;28;20255;-56
2023/04/03 00:24:03;;;;;;;3.67;1.70;;;;;;;;;;5018003;28;20424;-57
2023/04/03 00:26:29;;;;;;;4.33;1.90;;;;;;;;;;5018133;28;20540;-58
2023/04/03 00:28:57;;;;;;;3.27;1.80;;;;;;;;;;5017956;28;20491;-57
2023/04/03 00:31:23;;;;;;;3.33;1.80;;;;;;;;;;5017929;28;20495;-56
2023/04/03 00:33:49;;;;;;;2.73;1.77;;;;;;;;;;5017838;28;20440;-57
2023/04/03 00:36:15;;;;;;;5.13;1.67;;;;;;;;;;5018066;28;20675;-56
2023/04/03 00:38:41;;;;;;;5.20;2.10;;;;;;;;;;5017947;28;20432;-55
2023/04/03 00:41:08;;;;;;;4.03;1.80;;;;;;;;;;5017913;28;20480;-55
2023/04/03 00:43:34;;;;;;;2.30;1.70;;;;;;;;;;5017834;28;20444;-56
2023/04/03 00:46:01;;;;;;;4.87;1.83;;;;;;;;;;5000361;28;20444;-56
2023/04/03 00:48:29;;;;;;;3.80;1.93;;;;;;;;;;5017951;28;20213;-57
2023/04/03 00:50:56;;;;;;;3.23;1.87;;;;;;;;;;5017674;28;20503;-57
2023/04/03 00:53:23;;;;;;;2.80;1.90;;;;;;;;;;5017708;28;20447;-57
2023/04/03 00:55:49;;;;;;;3.10;1.90;;;;;;;;;;5017759;28;20898;-56
2023/04/03 00:58:16;;;;;;;3.93;2.00;;;;;;;;;;5017805;28;20774;-56
2023/04/03 01:00:46;;;;;;;9.23;2.00;;;;;;;;;;5017734;28;20440;-56
2023/04/03 01:03:14;;;;;;;3.40;2.17;;;;;;;;;;5017875;28;20483;-56
2023/04/03 01:05:40;;;;;;;3.63;1.97;;;;;;;;;;5017638;28;20442;-56
2023/04/03 01:08:06;;;;;;;3.00;1.90;;;;;;;;;;5017679;28;20443;-56
2023/04/03 01:10:32;;;;;;;2.90;1.83;;;;;;;;;;5017589;28;20472;-58
2023/04/03 01:13:00;;;;;;;2.00;1.83;;;;;;;;;;5017684;28;20454;-56
2023/04/03 01:15:30;;;;;;;4.03;1.80;;;;;;;;;;5017691;28;20452;-56
2023/04/03 01:17:57;;;;;;;2.40;1.70;;;;;;;;;;5017601;28;20489;-56
2023/04/03 01:20:44;;;;;;;3.00;1.77;;;;;;;;;;5017587;28;20806;-57
2023/04/03 01:23:18;;;;;;;6.80;2.20;;;;;;;;;;5017546;28;20474;-56
2023/04/03 01:25:45;;;;;;;4.30;1.90;;;;;;;;;;5017667;28;20450;-56
2023/04/03 01:28:12;;;;;;;3.67;2.07;;;;;;;;;;5017761;28;20428;-57
2023/04/03 01:30:41;;;;;;;2.60;1.80;;;;;;;;;;5016765;28;20475;-56
2023/04/03 01:33:09;;;;;;;5.13;1.83;;;;;;;;;;5013706;28;20910;-55
2023/04/03 01:35:35;;;;;;;3.77;1.97;;;;;;;;;;5014317;28;20533;-57
2023/04/03 01:38:01;;;;;;;3.40;2.00;;;;;;;;;;5014229;28;20468;-57
2023/04/03 01:40:27;;;;;;;4.10;2.03;;;;;;;;;;5014389;28;20441;-55
2023/04/03 01:42:53;;;;;;;3.20;1.93;;;;;;;;;;5014082;28;20209;-56
2023/04/03 01:45:19;;;;;;;2.70;1.70;;;;;;;;;;5014171;28;20229;-56
2023/04/03 01:47:45;;;;;;;5.20;2.10;;;;;;;;;;5014157;28;20460;-55
2023/04/03 01:50:13;;;;;;;2.77;1.50;;;;;;;;;;5014010;28;20221;-56
2023/04/03 01:52:39;;;;;;;2.73;1.90;;;;;;;;;;5014182;28;20284;-55
2023/04/03 01:55:05;;;;;;;4.20;1.83;;;;;;;;;;5013937;28;20440;-57
2023/04/03 01:57:31;;;;;;;3.37;1.77;;;;;;;;;;5013728;28;20480;-55
2023/04/03 01:59:57;;;;;;;2.73;1.70;;;;;;;;;;5013935;28;20540;-55
2023/04/03 02:02:23;;;;;;;6.73;2.80;;;;;;;;;;5013830;28;20468;-55
2023/04/03 02:04:49;;;;;;;3.47;1.97;;;;;;;;;;5013666;28;20209;-55
2023/04/03 02:07:17;;;;;;;5.17;2.50;;;;;;;;;;5013964;28;21059;-55
2023/04/03 02:09:43;;;;;;;3.67;2.30;;;;;;;;;;5013723;28;20219;-56
2023/04/03 02:12:09;;;;;;;3.67;2.07;;;;;;;;;;5013658;28;21002;-56
2023/04/03 02:14:35;;;;;;;3.97;2.20;;;;;;;;;;5013670;28;20264;-56
2023/04/03 02:17:04;;;;;;;4.00;2.03;;;;;;;;;;5013586;28;20840;-56
2023/04/03 02:19:30;;;;;;;4.07;2.07;;;;;;;;;;5013741;28;20202;-56
2023/04/03 02:21:56;;;;;;;4.03;1.57;;;;;;;;;;5013422;28;20452;-55
2023/04/03 02:24:24;;;;;;;3.60;1.90;;;;;;;;;;5013423;28;20623;-55
2023/04/03 02:26:50;;;;;;;6.33;2.17;;;;;;;;;;5013223;28;20680;-56
2023/04/03 02:29:16;;;;;;;3.53;1.80;;;;;;;;;;5013490;28;20443;-56
2023/04/03 02:31:42;;;;;;;3.70;1.93;;;;;;;;;;5013223;28;21064;-56
2023/04/03 02:34:08;;;;;;;4.07;1.90;;;;;;;;;;5013295;28;20692;-55
2023/04/03 02:36:34;;;;;;;3.53;1.90;;;;;;;;;;5013412;28;20479;-55
2023/04/03 02:39:00;;;;;;;1.97;1.77;;;;;;;;;;5013130;28;20205;-56
2023/04/03 02:41:33;;;;;;;3.60;2.00;;;;;;;;;;5013094;28;20429;-56
2023/04/03 02:43:59;;;;;;;5.03;2.03;;;;;;;;;;5013100;28;20495;-56
2023/04/03 02:46:25;;;;;;;4.47;2.23;;;;;;;;;;5013089;28;20456;-56
2023/04/03 02:48:51;;;;;;;2.37;1.90;;;;;;;;;;5013087;28;20432;-55
2023/04/03 02:51:17;;;;;;;2.20;1.73;;;;;;;;;;5012966;28;20229;-56
2023/04/03 02:53:43;;;;;;;4.70;1.93;;;;;;;;;;5012872;28;20664;-57
2023/04/03 02:56:09;;;;;;;3.90;1.67;;;;;;;;;;5012811;28;20456;-55
2023/04/03 02:58:37;;;;;;;5.53;2.00;;;;;;;;;;5012491;28;20887;-55
2023/04/03 03:01:03;;;;;;;3.60;1.70;;;;;;;;;;5012743;28;20875;-55
2023/04/03 03:03:29;;;;;;;3.10;2.10;;;;;;;;;;5012863;28;20433;-55
2023/04/03 03:06:01;;;;;;;4.83;2.10;;;;;;;;;;5012549;28;20791;-55
2023/04/03 03:08:27;;;;;;;4.27;1.93;;;;;;;;;;5012618;28;20692;-55
2023/04/03 03:10:53;;;;;;;3.03;1.80;;;;;;;;;;5012309;28;20519;-56
2023/04/03 03:13:19;;;;;;;5.70;1.97;;;;;;;;;;4994951;28;20216;-55
2023/04/03 03:15:47;;;;;;;3.30;1.60;;;;;;;;;;5012644;28;20943;-57
2023/04/03 03:18:13;;;;;;;3.03;1.70;;;;;;;;;;5012560;28;20443;-56
2023/04/03 03:20:39;;;;;;;3.17;1.80;;;;;;;;;;5012364;28;20808;-55
2023/04/03 03:23:05;;;;;;;4.17;1.80;;;;;;;;;;5012261;28;20648;-55
2023/04/03 03:25:31;;;;;;;3.17;2.10;;;;;;;;;;5012491;28;20459;-56
2023/04/03 03:27:57;;;;;;;6.73;2.30;;;;;;;;;;5012353;28;20519;-56
2023/04/03 03:30:23;;;;;;;3.07;2.00;;;;;;;;;;5012029;28;20583;-56
2023/04/03 03:32:50;;;;;;;4.17;1.70;;;;;;;;;;5012151;28;20205;-56
2023/04/03 03:35:16;;;;;;;3.00;1.80;;;;;;;;;;5012261;28;20567;-56
2023/04/03 03:37:42;;;;;;;3.10;1.77;;;;;;;;;;5012113;28;20428;-56
2023/04/03 03:40:09;;;;;;;1.97;1.70;;;;;;;;;;5012077;28;20444;-55
2023/04/03 03:42:37;;;;;;;3.77;1.97;;;;;;;;;;5012077;28;20198;-55
2023/04/03 03:45:03;;;;;;;3.47;1.77;;;;;;;;;;5011949;28;20463;-57
2023/04/03 03:47:29;;;;;;;4.57;2.00;;;;;;;;;;5012163;28;20444;-55
2023/04/03 03:49:57;;;;;;;3.20;1.80;;;;;;;;;;5011808;28;20815;-55
2023/04/03 03:52:23;;;;;;;4.53;2.00;;;;;;;;;;5011927;28;20704;-55
2023/04/03 03:54:49;;;;;;;3.47;1.90;;;;;;;;;;5011165;28;20491;-55
2023/04/03 03:57:15;;;;;;;2.80;1.80;;;;;;;;;;5011714;28;20460;-56
2023/04/03 03:59:41;;;;;;;7.47;2.43;;;;;;;;;;5011844;28;20483;-55
2023/04/03 04:02:07;;;;;;;2.47;1.80;;;;;;;;;;5011664;28;20439;-55
2023/04/03 04:04:34;;;;;;;4.57;1.97;;;;;;;;;;5011788;28;20437;-56
2023/04/03 04:07:01;;;;;;;3.70;2.20;;;;;;;;;;5011800;28;20489;-55
2023/04/03 04:09:27;;;;;;;4.20;2.17;;;;;;;;;;5011733;28;20523;-55
2023/04/03 04:11:53;;;;;;;4.50;2.00;;;;;;;;;;5011470;28;20534;-55
2023/04/03 04:14:22;;;;;;;3.97;2.13;;;;;;;;;;5011622;28;20874;-56
2023/04/03 04:16:48;;;;;;;3.57;1.90;;;;;;;;;;5011456;28;20968;-56
2023/04/03 04:19:14;;;;;;;3.60;1.87;;;;;;;;;;5011640;28;20980;-56
2023/04/03 04:21:41;;;;;;;2.70;1.87;;;;;;;;;;5011440;28;20997;-55
2023/04/03 04:24:09;;;;;;;3.40;1.93;;;;;;;;;;5011574;28;20527;-55
2023/04/03 04:26:35;;;;;;;3.50;1.80;;;;;;;;;;5011406;28;20793;-55
2023/04/03 04:29:01;;;;;;;5.63;2.30;;;;;;;;;;5011613;28;20439;-56
2023/04/03 04:31:27;;;;;;;3.90;2.17;;;;;;;;;;5011431;28;20234;-55
2023/04/03 04:33:53;;;;;;;5.23;2.20;;;;;;;;;;5011430;28;20198;-56
2023/04/03 04:36:20;;;;;;;3.53;1.87;;;;;;;;;;5011493;28;20875;-55
2023/04/03 04:38:46;;;;;;;3.57;1.90;;;;;;;;;;5011398;28;20833;-55
2023/04/03 04:41:13;;;;;;;3.50;1.83;;;;;;;;;;5011545;28;20447;-55
2023/04/03 04:43:39;;;;;;;3.53;2.13;;;;;;;;;;5011279;28;20447;-56
2023/04/03 04:46:06;;;;;;;2.70;1.73;;;;;;;;;;5011309;28;20456;-56
2023/04/03 04:48:32;;;;;;;3.10;2.00;;;;;;;;;;5011190;28;20443;-56
2023/04/03 04:50:58;;;;;;;4.87;2.13;;;;;;;;;;5011204;28;20472;-55
2023/04/03 04:53:25;;;;;;;3.77;1.73;;;;;;;;;;5011261;28;20495;-56
2023/04/03 04:55:51;;;;;;;6.23;1.93;;;;;;;;;;5011105;28;20483;-56
2023/04/03 04:58:19;;;;;;;4.17;1.77;;;;;;;;;;5011055;28;20468;-56
2023/04/03 05:00:45;;;;;;;4.80;2.40;;;;;;;;;;5011280;28;20436;-56
2023/04/03 05:03:11;;;;;;;5.03;2.00;;;;;;;;;;5011176;28;20436;-56
2023/04/03 05:05:37;;;;;;;3.13;2.10;;;;;;;;;;5010868;28;20465;-60
2023/04/03 05:08:03;;;;;;;5.10;2.07;;;;;;;;;;5013893;28;20440;-56
2023/04/03 05:10:29;;;;;;;5.13;2.00;;;;;;;;;;5014804;28;20472;-56
2023/04/03 05:12:55;;;;;;;5.67;1.80;;;;;;;;;;5014757;28;20206;-56
2023/04/03 05:15:23;;;;;;;4.00;1.90;;;;;;;;;;5014756;28;20204;-56
2023/04/03 05:17:50;;;;;;;3.57;1.90;;;;;;;;;;5014466;28;20471;-56
2023/04/03 05:20:16;;;;;;;3.33;2.00;;;;;;;;;;5014769;28;20532;-56
2023/04/03 05:22:42;;;;;;;4.60;2.10;;;;;;;;;;5014597;28;20487;-56
2023/04/03 05:25:08;;;;;;;5.67;2.17;;;;;;;;;;5014464;28;20437;-56
2023/04/03 05:27:34;;;;;;;5.30;2.33;;;;;;;;;;5014459;28;20209;-56
2023/04/03 05:30:00;;;;;;;2.33;1.90;;;;;;;;;;5014530;28;20445;-55
2023/04/03 05:32:28;;;;;;;4.77;2.30;;;;;;;;;;5014457;28;20241;-55
2023/04/03 05:34:54;;;;;;;3.53;2.13;;;;;;;;;;5014221;28;20938;-55
2023/04/03 05:37:20;;;;;;;4.43;1.87;;;;;;;;;;5014306;28;20452;-55
2023/04/03 05:39:46;;;;;;;4.07;1.90;;;;;;;;;;5014399;28;20197;-55
2023/04/03 05:42:13;;;;;;;3.17;2.23;;;;;;;;;;5014584;28;20449;-55
2023/04/03 05:44:40;;;;;;;4.67;2.10;;;;;;;;;;5014170;28;20958;-56
2023/04/03 05:47:06;;;;;;;2.77;1.93;;;;;;;;;;5014122;28;20507;-55
2023/04/03 05:49:34;;;;;;;2.80;1.70;;;;;;;;;;5014198;28;20444;-55
2023/04/03 05:52:00;;;;;;;3.43;2.30;;;;;;;;;;5013979;28;20476;-55
2023/04/03 05:54:26;;;;;;;3.63;2.20;;;;;;;;;;5013970;28;20435;-55
2023/04/03 05:56:53;;;;;;;3.37;2.17;;;;;;;;;;5013878;28;20230;-55
2023/04/03 05:59:20;;;;;;;4.73;1.90;;;;;;;;;;5013724;28;20484;-55
2023/04/03 06:01:46;;;;;;;3.60;2.00;;;;;;;;;;5013848;28;20704;-55
2023/04/03 06:04:13;;;;;;;5.73;2.53;;;;;;;;;;5013891;28;20439;-55
2023/04/03 06:06:47;;;;;;;4.67;2.13;;;;;;;;;;5013740;28;20954;-55
2023/04/03 06:09:14;;;;;;;5.83;2.30;;;;;;;;;;5014007;28;20436;-55
2023/04/03 06:11:41;;;;;;;5.30;2.10;;;;;;;;;;5013633;28;20905;-55
2023/04/03 06:14:07;;;;;;;6.33;2.73;;;;;;;;;;5013606;28;20437;-55
2023/04/03 06:16:33;;;;;;;2.93;1.97;;;;;;;;;;5013503;28;20507;-55
2023/04/03 06:18:59;;;;;;;4.10;1.90;;;;;;;;;;5013061;28;20930;-55
2023/04/03 06:21:26;;;;;;;4.23;1.97;;;;;;;;;;5013355;28;20190;-55
2023/04/03 06:23:53;;;;;;;3.73;1.80;;;;;;;;;;5013274;28;20419;-55
2023/04/03 06:26:20;;;;;;;4.03;2.07;;;;;;;;;;5013419;28;20455;-55
2023/04/03 06:28:46;;;;;;;4.50;1.90;;;;;;;;;;5013369;28;20467;-55
2023/04/03 06:31:12;;;;;;;5.13;2.83;;;;;;;;;;5013662;28;20481;-55
2023/04/03 06:33:38;;;;;;;4.57;1.83;;;;;;;;;;5013268;28;20498;-55
2023/04/03 06:36:05;;;;;;;2.77;2.07;;;;;;;;;;5013110;28;20678;-55
2023/04/03 06:38:31;;;;;;;4.80;1.53;;;;;;;;;;5013342;28;20232;-55
2023/04/03 06:40:58;;;;;;;4.80;1.97;;;;;;;;;;5013425;28;20463;-55
2023/04/03 06:43:24;;;;;;;2.57;1.80;;;;;;;;;;5013121;28;20441;-55
2023/04/03 06:45:50;;;;;;;3.57;1.80;;;;;;;;;;5012868;28;20490;-55
2023/04/03 06:48:16;;;;;;;2.33;1.53;;;;;;;;;;5013119;28;20433;-55
2023/04/03 06:50:42;;;;;;;4.93;1.97;;;;;;;;;;5013106;28;20814;-55
2023/04/03 06:53:09;;;;;;;6.50;1.80;;;;;;;;;;5012954;28;20236;-55
2023/04/03 06:55:35;;;;;;;3.17;2.37;;;;;;;;;;5012855;28;20543;-55
2023/04/03 06:58:03;;;;;;;5.37;2.00;;;;;;;;;;5012598;28;20490;-54
2023/04/03 07:00:30;;;;;;;3.50;1.80;;;;;;;;;;5011178;28;20444;-54
2023/04/03 07:02:57;;;;;;;2.77;1.60;;;;;;;;;;5012674;28;20435;-56
2023/04/03 07:05:23;;;;;;;4.53;1.90;;;;;;;;;;5012291;28;20444;-55
2023/04/03 07:07:50;;;;;;;2.20;1.60;;;;;;;;;;5011848;28;20456;-54
2023/04/03 07:10:16;;;;;;;2.20;1.60;;;;;;;;;;5012200;28;20569;-54
2023/04/03 07:12:42;;;;;;;4.13;1.73;;;;;;;;;;5012129;28;21041;-55
2023/04/03 07:15:10;;;;;;;3.37;1.97;;;;;;;;;;5012417;28;20444;-55
2023/04/03 07:17:36;;;;;;;3.20;1.50;;;;;;;;;;5012400;28;20882;-54
2023/04/03 07:20:03;;;;;;;4.03;1.70;;;;;;;;;;5012436;28;20440;-54
2023/04/03 07:22:29;;;;;;;2.57;1.90;;;;;;;;;;5012532;28;20440;-54
2023/04/03 07:24:55;;;;;;;3.77;1.80;;;;;;;;;;5012259;28;20433;-54
2023/04/03 07:27:21;;;;;;;4.10;2.03;;;;;;;;;;5012370;28;20817;-55
2023/04/03 07:29:48;;;;;;;3.73;1.83;;;;;;;;;;5011418;28;20951;-54
2023/04/03 07:32:16;;;;;;;2.47;1.60;;;;;;;;;;5012280;28;20233;-55
2023/04/03 07:34:41;;;;;;;2.67;1.50;;;;;;;;;;5012294;28;20437;-54
2023/04/03 07:37:08;;;;;;;3.57;1.63;;;;;;;;;;5012009;28;21014;-55
2023/04/03 07:39:35;;;;;;;2.97;1.57;;;;;;;;;;5012144;28;20209;-56
2023/04/03 07:42:01;;;;;;;3.23;1.70;;;;;;;;;;5012128;28;20444;-55
2023/04/03 07:44:28;;;;;;;2.33;1.50;;;;;;;;;;5004743;28;20520;-55
2023/04/03 07:46:55;;;;;;;2.73;1.53;;;;;;;;;;5010903;28;20292;-55
2023/04/03 07:49:24;;;;;;;3.30;1.50;;;;;;;;;;5011803;28;20433;-55
2023/04/03 07:51:50;;;;;;;4.17;1.60;;;;;;;;;;5011709;28;20233;-55
2023/04/03 07:54:16;;;;;;;2.97;1.60;;;;;;;;;;4994262;28;20618;-56
2023/04/03 07:56:42;;;;;;;4.67;1.50;;;;;;;;;;5012107;28;20240;-56
2023/04/03 07:59:08;;;;;;;2.47;1.50;;;;;;;;;;5011674;28;20253;-57
2023/04/03 08:01:34;;;;;;;3.00;1.53;;;;;;;;;;5011769;28;20252;-56
2023/04/03 08:04:00;;;;;;;3.37;1.40;;;;;;;;;;5011776;28;20663;-56
2023/04/03 08:06:34;;;;;;;3.03;1.40;;;;;;;;;;5011896;28;20288;-55
2023/04/03 08:09:00;;;;;;;4.10;1.60;;;;;;;;;;5011814;28;20433;-56
2023/04/03 08:11:26;;;;;;;1.10;1.10;;;;;;;;;;5011773;28;20226;-57
2023/04/03 08:13:52;;;;;;;3.43;1.40;;;;;;;;;;5011574;28;20628;-56
2023/04/03 08:16:20;;;;;;;2.80;1.40;;;;;;;;;;5011372;28;20205;-56
2023/04/03 08:18:46;;;;;;;3.13;1.40;;;;;;;;;;5011370;28;20537;-57
2023/04/03 08:21:13;;;;;;;1.60;1.40;;;;;;;;;;5011555;28;20209;-55
2023/04/03 08:23:41;;;;;;;1.80;1.40;;;;;;;;;;5011470;28;20205;-56
2023/04/03 08:26:08;;;;;;;3.20;1.20;;;;;;;;;;5011317;28;20239;-58
2023/04/03 08:28:34;;;;;;;3.00;1.47;;;;;;;;;;5011379;28;20645;-56
2023/04/03 08:31:04;;;;;;;2.27;1.40;;;;;;;;;;5011204;28;20260;-56
2023/04/03 08:33:30;;;;;;;4.00;1.30;;;;;;;;;;5011686;28;20256;-57
2023/04/03 08:35:56;;;;;;;2.07;1.67;;;;;;;;;;5011325;28;20333;-55
2023/04/03 08:38:22;;;;;;;2.63;1.20;;;;;;;;;;5011363;28;20229;-55
2023/04/03 08:40:59;;;;;;;2.50;1.47;;;;;;;;;;5012238;28;20193;-55
2023/04/03 08:43:30;;;;;;;1.90;1.13;;;;;;;;;;5015437;28;20664;-55
2023/04/03 08:45:59;;;;;;;2.33;1.30;;;;;;;;;;5015119;28;20292;-55
2023/04/03 08:48:27;;;;;;;4.17;1.57;;;;;;;;;;5014896;28;20211;-56
2023/04/03 08:50:55;;;;;;;3.07;1.23;;;;;;;;;;5014970;28;20248;-55
2023/04/03 08:53:22;;;;;;;2.43;1.30;;;;;;;;;;5015054;28;20221;-56
2023/04/03 08:55:50;;;;;;;5.40;1.47;;;;;;;;;;5014889;28;20271;-56
2023/04/03 08:58:17;;;;;;;1.90;1.30;;;;;;;;;;5015059;28;20269;-56
2023/04/03 09:00:45;;;;;;;1.90;1.30;;;;;;;;;;5014897;28;20557;-56
2023/04/03 09:03:13;;;;;;;2.93;1.30;;;;;;;;;;5014987;28;20655;-55
2023/04/03 09:05:42;;;;;;;2.70;1.30;;;;;;;;;;5014906;28;20213;-56
2023/04/03 09:08:12;;;;;;;2.37;1.50;;;;;;;;;;5014710;28;20210;-55
2023/04/03 09:10:40;;;;;;;4.27;1.40;;;;;;;;;;5014892;28;20232;-56
2023/04/03 09:13:12;;;;;;;3.77;1.47;;;;;;;;;;5014573;28;20201;-56
2023/04/03 09:15:38;;;;;;;3.03;1.80;;;;;;;;;;5014878;28;20228;-56
2023/04/03 09:18:05;;;;;;;2.53;1.80;;;;;;;;;;5014514;28;20202;-56
2023/04/03 09:20:40;;;;;;;3.23;1.40;;;;;;;;;;5014532;28;20727;-56
2023/04/03 09:23:11;;;;;;;3.63;1.40;;;;;;;;;;5014461;28;20641;-57
2023/04/03 09:25:38;;;;;;;2.83;1.40;;;;;;;;;;5014706;28;20229;-56
2023/04/03 09:28:09;;;;;;;2.73;1.43;;;;;;;;;;5014220;28;20630;-55
2023/04/03 09:30:37;;;;;;;3.03;1.40;;;;;;;;;;5014406;28;20908;-55
2023/04/03 09:33:05;;;;;;;5.17;1.93;;;;;;;;;;5011811;28;20605;-55
2023/04/03 09:35:31;;;;;;;2.30;1.50;;;;;;;;;;5012376;28;20202;-56
2023/04/03 09:37:59;;;;;;;2.37;1.20;;;;;;;;;;5014398;28;20228;-57
2023/04/03 09:40:34;;;;;;;2.33;1.37;;;;;;;;;;5014477;28;20629;-55
2023/04/03 09:43:01;;;;;;;2.17;1.30;;;;;;;;;;5014250;28;20230;-57
2023/04/03 09:45:28;;;;;;;2.40;1.10;;;;;;;;;;5014074;28;20664;-57
2023/04/03 09:48:09;;;;;;;1.07;0.93;;;;;;;;;;5014040;28;20659;-59
2023/04/03 09:50:36;;;;;;;1.80;1.23;;;;;;;;;;5014211;28;20216;-58
2023/04/03 09:53:06;;;;;;;1.73;1.30;;;;;;;;;;5012813;28;20205;-60
2023/04/03 09:55:32;;;;;;;1.97;1.00;;;;;;;;;;5014235;28;20202;-60
2023/04/03 09:57:59;;;;;;;2.47;1.40;;;;;;;;;;5013861;28;20275;-58
2023/04/03 10:00:26;;;;;;;2.53;1.30;;;;;;;;;;5014043;28;20201;-58
2023/04/03 10:02:55;;;;;;;4.37;1.30;;;;;;;;;;5013932;28;20192;-57
2023/04/03 10:05:28;;;;;;;2.17;1.20;;;;;;;;;;5009386;28;20520;-59
2023/04/03 10:08:07;;;;;;;1.97;1.20;;;;;;;;;;5013730;28;20611;-58
2023/04/03 10:10:33;;;;;;;3.17;1.40;;;;;;;;;;5013923;28;20197;-57
2023/04/03 10:13:06;;;;;;;2.03;1.20;;;;;;;;;;5013848;28;20205;-56
2023/04/03 10:15:36;;;;;;;1.43;1.03;;;;;;;;;;5014000;28;20197;-57
2023/04/03 10:18:03;;;;;;;1.73;0.90;;;;;;;;;;5013894;28;20255;-57
2023/04/03 10:20:34;;;;;;;2.70;1.20;;;;;;;;;;5013972;28;20639;-57
2023/04/03 10:23:09;;;;;;;2.23;1.27;;;;;;;;;;5013798;28;20252;-57
2023/04/03 10:25:38;;;;;;;3.47;1.23;;;;;;;;;;5006985;28;20224;-57
2023/04/03 10:28:05;;;;;;;2.07;1.13;;;;;;;;;;5011796;28;20201;-57
2023/04/03 10:30:35;;;;;;;1.53;1.30;;;;;;;;;;5008819;28;20571;-58
2023/04/03 10:33:10;;;;;;;3.33;1.30;;;;;;;;;;4994691;28;20230;-59
2023/04/03 10:35:42;;;;;;;2.57;1.13;;;;;;;;;;4993731;28;20231;-58
2023/04/03 10:38:11;;;;;;;3.00;1.43;;;;;;;;;;4993633;28;20214;-58
2023/04/03 10:40:45;;;;;;;2.70;1.03;;;;;;;;;;4993686;28;20198;-58
2023/04/03 10:43:18;;;;;;;2.47;1.33;;;;;;;;;;4993869;28;20206;-57
2023/04/03 10:45:50;;;;;;;2.23;1.30;;;;;;;;;;4993326;28;20563;-56
2023/04/03 10:48:19;;;;;;;2.27;1.37;;;;;;;;;;4993654;28;20566;-58
2023/04/03 10:50:52;;;;;;;2.80;1.37;;;;;;;;;;4993559;28;20202;-56
2023/04/03 10:53:21;;;;;;;1.77;1.10;;;;;;;;;;4993467;28;20282;-57
2023/04/03 10:55:52;;;;;;;1.87;1.30;;;;;;;;;;4993245;28;20274;-57
2023/04/03 10:58:21;;;;;;;1.43;1.00;;;;;;;;;;4993313;28;20226;-57
2023/04/03 11:00:49;;;;;;;2.20;1.20;;;;;;;;;;4993220;28;20254;-58
2023/04/03 11:03:17;;;;;;;2.23;1.30;;;;;;;;;;4993406;28;20198;-58
2023/04/03 11:05:44;;;;;;;1.33;1.10;;;;;;;;;;4993203;28;20206;-58
2023/04/03 11:08:18;;;;;;;1.33;1.10;;;;;;;;;;4992982;28;20256;-58
2023/04/03 11:10:45;;;;;;;1.33;1.20;;;;;;;;;;4993145;28;20767;-57
2023/04/03 11:13:12;;;;;;;1.97;1.40;;;;;;;;;;4993171;28;20206;-58
2023/04/03 11:15:39;;;;;;;2.00;1.50;;;;;;;;;;4975414;28;20295;-57
2023/04/03 11:18:10;;;;;;;2.47;1.20;;;;;;;;;;4992306;28;20692;-58
2023/04/03 11:20:37;;;;;;;1.47;1.00;;;;;;;;;;4992888;28;20201;-57
2023/04/03 11:23:04;;;;;;;3.27;1.10;;;;;;;;;;4992662;28;20676;-57
2023/04/03 11:25:33;;;;;;;2.70;1.30;;;;;;;;;;4992641;28;20297;-57
2023/04/03 11:28:01;;;;;;;1.77;1.20;;;;;;;;;;4992691;28;20665;-57
2023/04/03 11:30:28;;;;;;;2.60;1.47;;;;;;;;;;4992830;28;20198;-57
2023/04/03 11:33:03;;;;;;;3.00;1.60;;;;;;;;;;4992460;28;20707;-56
2023/04/03 11:35:31;;;;;;;1.77;1.20;;;;;;;;;;4992703;28;20229;-56
2023/04/03 11:37:58;;;;;;;2.90;1.20;;;;;;;;;;4992467;28;20285;-57
2023/04/03 11:40:26;;;;;;;1.60;1.30;;;;;;;;;;4992552;28;20198;-57
2023/04/03 11:42:54;;;;;;;1.07;0.97;;;;;;;;;;4990426;28;20696;-56
2023/04/03 11:45:32;;;;;;;2.90;0.83;;;;;;;;;;4989835;28;20202;-57
2023/04/03 11:47:59;;;;;;;1.77;1.07;;;;;;;;;;4992693;28;20206;-57
2023/04/03 11:50:31;;;;;;;2.37;1.10;;;;;;;;;;4990773;28;20205;-55
2023/04/03 11:52:59;;;;;;;2.33;1.20;;;;;;;;;;4990923;28;20300;-56
2023/04/03 11:55:43;;;;;;;1.53;1.07;;;;;;;;;;4992669;28;20558;-55
2023/04/03 11:58:15;;;;;;;1.87;0.93;;;;;;;;;;4992150;28;20245;-57
2023/04/03 12:00:51;;;;;;;1.87;1.30;;;;;;;;;;4992446;28;20261;-57
2023/04/03 12:03:45;;;;;;;3.33;1.23;;;;;;;;;;4992419;28;20210;-56
2023/04/03 12:06:41;;;;;;;2.00;1.30;;;;;;;;;;4935714;28;20209;-57
2023/04/03 12:09:22;;;;;;;2.30;1.23;;;;;;;;;;4894378;29;20210;-57
2023/04/03 12:11:49;;;;;;;1.70;1.20;;;;;;;;;;4979215;28;20238;-57
2023/04/03 12:14:17;;;;;;;1.90;1.17;;;;;;;;;;4992220;28;20570;-57
2023/04/03 12:16:44;;;;;;;2.10;1.30;;;;;;;;;;4991940;28;20206;-57
2023/04/03 12:19:25;;;;;;;1.80;1.10;;;;;;;;;;4992025;28;20202;-57
2023/04/03 12:22:09;;;;;;;2.30;1.57;;;;;;;;;;4991737;28;20229;-56
2023/04/03 12:24:36;;;;;;;1.50;1.20;;;;;;;;;;4992227;28;20656;-57
2023/04/03 12:27:03;;;;;;;1.53;1.23;;;;;;;;;;4992093;28;20301;-57
2023/04/03 12:29:38;;;;;;;1.33;1.10;;;;;;;;;;4992230;28;20213;-57
2023/04/03 12:32:10;;;;;;;1.97;1.20;;;;;;;;;;4992152;28;20233;-57
2023/04/03 12:34:44;;;;;;;3.50;1.20;;;;;;;;;;4990058;28;20704;-55
2023/04/03 12:37:21;;;;;;;3.83;2.00;;;;;;;;;;4991769;28;20273;-56
2023/04/03 12:39:53;;;;;;;2.80;1.40;;;;;;;;;;4991677;28;20197;-56
2023/04/03 12:42:25;;;;;;;1.30;0.90;;;;;;;;;;4991859;28;20198;-56
2023/04/03 12:44:57;;;;;;;2.33;1.37;;;;;;;;;;4991730;28;20271;-56
2023/04/03 12:47:26;;;;;;;3.37;1.20;;;;;;;;;;4991882;28;20277;-56
2023/04/03 12:49:52;;;;;;;3.20;1.03;;;;;;;;;;4991568;28;20675;-57
2023/04/03 12:52:20;;;;;;;1.83;1.20;;;;;;;;;;4991713;28;20325;-56
2023/04/03 12:54:47;;;;;;;2.13;1.30;;;;;;;;;;4991759;28;20233;-56
2023/04/03 12:57:17;;;;;;;1.80;1.23;;;;;;;;;;4991429;28;20213;-56
2023/04/03 12:59:46;;;;;;;2.07;1.20;;;;;;;;;;4991931;28;20206;-57
2023/04/03 13:02:20;;;;;;;1.63;1.13;;;;;;;;;;4991589;28;20203;-57
2023/04/03 13:04:47;;;;;;;2.10;1.10;;;;;;;;;;4991720;28;20209;-56
2023/04/03 13:07:20;;;;;;;1.20;1.10;;;;;;;;;;4991535;28;20289;-56
2023/04/03 13:09:55;;;;;;;1.77;1.10;;;;;;;;;;4991725;28;20214;-57
2023/04/03 13:12:21;;;;;;;2.37;1.30;;;;;;;;;;4991561;28;20246;-56
2023/04/03 13:14:52;;;;;;;2.00;1.20;;;;;;;;;;4991468;28;20195;-56
2023/04/03 13:17:21;;;;;;;1.40;0.90;;;;;;;;;;4991477;28;20201;-57
2023/04/03 13:19:47;;;;;;;1.93;1.23;;;;;;;;;;4991470;28;20194;-57
2023/04/03 13:22:20;;;;;;;2.63;1.33;;;;;;;;;;4991453;28;20202;-57
2023/04/03 13:24:47;;;;;;;3.53;1.20;;;;;;;;;;4991516;28;20213;-56
2023/04/03 13:27:13;;;;;;;2.77;1.10;;;;;;;;;;4991931;28;20199;-58
2023/04/03 13:29:39;;;;;;;1.37;1.00;;;;;;;;;;4995019;28;20226;-58
2023/04/03 13:32:06;;;;;;;2.53;1.17;;;;;;;;;;4995180;28;20233;-56
2023/04/03 13:34:38;;;;;;;1.57;1.30;;;;;;;;;;4995313;28;20730;-56
2023/04/03 13:37:05;;;;;;;2.67;1.23;;;;;;;;;;4995133;28;20207;-56
2023/04/03 13:39:31;;;;;;;2.07;1.17;;;;;;;;;;4995142;28;20214;-55
2023/04/03 13:41:58;;;;;;;1.67;1.50;;;;;;;;;;4994731;28;20201;-56
2023/04/03 13:44:27;;;;;;;3.70;1.10;;;;;;;;;;4998993;28;20703;-56
2023/04/03 13:46:55;;;;;;;4.27;0.97;;;;;;;;;;5014463;28;20225;-56
2023/04/03 13:49:21;;;;;;;1.80;1.20;;;;;;;;;;5014285;28;20204;-56
2023/04/03 13:51:51;;;;;;;2.20;1.33;;;;;;;;;;5014377;28;20225;-56
2023/04/03 13:54:19;;;;;;;1.73;1.30;;;;;;;;;;5014619;28;20209;-56
2023/04/03 13:56:46;;;;;;;2.37;1.27;;;;;;;;;;5014606;28;20245;-56
2023/04/03 13:59:23;;;;;;;2.07;1.10;;;;;;;;;;5014181;28;20673;-56
2023/04/03 14:01:53;;;;;;;2.13;1.40;;;;;;;;;;5014206;28;20197;-56
2023/04/03 14:04:21;;;;;;;1.67;1.10;;;;;;;;;;5014418;28;20285;-55
2023/04/03 14:06:47;;;;;;;2.17;1.20;;;;;;;;;;5014220;28;20196;-56
2023/04/03 14:09:15;;;;;;;1.37;1.00;;;;;;;;;;5014189;28;20204;-55
2023/04/03 14:11:42;;;;;;;2.80;1.30;;;;;;;;;;5012101;28;20320;-55
2023/04/03 14:14:12;;;;;;;2.90;1.40;;;;;;;;;;5010801;28;20197;-55
2023/04/03 14:16:40;;;;;;;1.43;1.17;;;;;;;;;;5014235;28;20232;-56
2023/04/03 14:19:07;;;;;;;3.07;1.47;;;;;;;;;;5013903;28;20206;-56
2023/04/03 14:21:33;;;;;;;3.20;1.60;;;;;;;;;;5013939;28;20193;-56
2023/04/03 14:23:59;;;;;;;2.40;1.50;;;;;;;;;;5011865;28;20584;-56
2023/04/03 14:26:30;;;;;;;2.73;1.50;;;;;;;;;;5013505;28;20194;-55
2023/04/03 14:28:56;;;;;;;3.90;1.67;;;;;;;;;;5013444;28;20205;-56
2023/04/03 14:31:22;;;;;;;2.93;1.63;;;;;;;;;;5013327;28;20589;-56
2023/04/03 14:33:48;;;;;;;2.07;1.07;;;;;;;;;;5013354;28;20197;-57
2023/04/03 14:36:15;;;;;;;2.60;1.30;;;;;;;;;;5013401;28;20205;-57
2023/04/03 14:38:41;;;;;;;3.03;1.70;;;;;;;;;;5013114;28;20198;-57
2023/04/03 14:41:08;;;;;;;1.47;1.27;;;;;;;;;;5013393;28;20226;-57
2023/04/03 14:43:35;;;;;;;1.80;1.13;;;;;;;;;;5013007;28;20648;-57
2023/04/03 14:46:01;;;;;;;3.50;1.30;;;;;;;;;;5013184;28;20244;-56
2023/04/03 14:48:28;;;;;;;2.07;1.27;;;;;;;;;;5013164;28;20686;-56